Terminal Aerodrome Forecast
Issued by NWS King Salmon, AK

Current Version | Previous Version | Text Only | Print | Product List | Glossary On
Versions: 1 2 3 4 5 6 7 8 9 10 11 12 13 14 15 16 17 18 19 20 21 22 23 24 25 26 27 28 29 30
000
FTAK31 PANC 220528
TAFAKN
TAF
PAKN 220528Z 2206/2306 VRB06KT P6SM VCSH SCT025 OVC070
      TEMPO 2206/2210 -RA BKN025
     FM221200 09007KT P6SM VCFG FEW008 SCT025 OVC040
     FM222000 12013G20KT P6SM VCSH SCT030 BKN060
     FM230500 10018G28KT P6SM VCSH SCT030 BKN050=

USA.gov is the U.S. government's official web portal to all federal, state and local government web resources and services.